createdAt,value
2018-05-29T00:09:03.020Z,56.0
2018-05-29T00:25:59.796Z,56.4
2018-05-29T00:42:49.182Z,56.8
2018-05-29T00:59:42.464Z,56.0
2018-05-29T01:16:35.805Z,56.4
2018-05-29T01:33:29.208Z,56.4
2018-05-29T01:50:22.596Z,56.0
2018-05-29T02:07:15.876Z,55.6
2018-05-29T02:24:09.222Z,55.6
2018-05-29T02:41:02.519Z,56.0
2018-05-29T02:57:55.628Z,56.0
2018-05-29T03:14:49.857Z,56.0
2018-05-29T03:31:41.970Z,56.0
2018-05-29T03:48:35.163Z,56.0
2018-05-29T04:05:28.121Z,56.4
2018-05-29T04:22:20.908Z,56.8
2018-05-29T04:39:13.642Z,56.8
2018-05-29T04:56:06.059Z,57.2
2018-05-29T05:12:59.251Z,57.2
2018-05-29T05:29:52.862Z,56.8
2018-05-29T05:46:46.829Z,56.4
2018-05-29T06:03:40.802Z,56.0
2018-05-29T06:20:35.189Z,56.0
2018-05-29T06:37:29.762Z,55.2
2018-05-29T06:54:24.678Z,54.8
2018-05-29T07:11:19.823Z,54.8
2018-05-29T07:28:15.039Z,54.8
2018-05-29T07:45:10.601Z,54.4
2018-05-29T08:02:06.276Z,54.4
2018-05-29T08:19:02.256Z,54.0
2018-05-29T08:35:58.520Z,53.6
2018-05-29T08:52:54.947Z,53.6
2018-05-29T09:09:51.449Z,54.0
2018-05-29T09:23:24.749Z,51.6
2018-05-29T09:40:22.537Z,50.8
2018-05-29T09:57:18.302Z,50.4
2018-05-29T10:14:15.255Z,50.4
2018-05-29T10:31:12.723Z,50.8
2018-05-29T10:48:09.720Z,50.8
2018-05-29T11:05:07.219Z,50.4
2018-05-29T11:22:04.984Z,50.0
2018-05-29T11:39:02.899Z,50.0
2018-05-29T11:56:01.201Z,49.2
2018-05-29T12:12:59.358Z,49.2
2018-05-29T12:29:57.688Z,49.6
2018-05-29T12:46:55.742Z,50.0
2018-05-29T13:03:53.704Z,50.0
2018-05-29T13:20:51.730Z,50.4
2018-05-29T13:37:49.825Z,50.4
2018-05-29T13:54:47.712Z,51.6
2018-05-29T14:11:45.408Z,52.0
2018-05-29T14:28:43.006Z,52.0
2018-05-29T14:45:40.850Z,51.2
2018-05-29T15:02:38.712Z,51.2
2018-05-29T15:19:36.416Z,51.6
2018-05-29T15:36:34.047Z,51.6
2018-05-29T15:53:31.762Z,52.0
2018-05-29T16:10:28.928Z,52.4
2018-05-29T16:27:25.942Z,53.2
2018-05-29T16:44:22.709Z,53.2
2018-05-29T17:01:18.948Z,52.4
2018-05-29T17:18:14.867Z,53.6
2018-05-29T17:35:10.350Z,54.4
2018-05-29T17:52:05.732Z,54.8
2018-05-29T18:09:05.181Z,56.0
2018-05-29T18:25:56.705Z,58.0
2018-05-29T18:42:50.134Z,58.4
2018-05-29T18:59:44.861Z,57.6
2018-05-29T19:16:40.033Z,56.8
2018-05-29T19:33:35.021Z,56.8
2018-05-29T19:50:30.067Z,57.2
2018-05-29T20:07:24.640Z,57.2
2018-05-29T20:24:18.644Z,58.0
2018-05-29T20:41:12.525Z,58.4
2018-05-29T20:58:06.591Z,58.8
2018-05-29T21:15:00.343Z,58.8
2018-05-29T21:31:54.482Z,59.6
2018-05-29T21:48:48.130Z,58.8
2018-05-29T22:05:41.406Z,59.6
2018-05-29T22:22:34.566Z,59.6
2018-05-29T22:39:27.815Z,59.6
2018-05-29T22:56:21.325Z,60.4
2018-05-29T23:06:28.875Z,61.2
2018-05-29T23:23:20.657Z,62.8
2018-05-29T23:40:12.380Z,62.8
2018-05-29T23:57:05.044Z,62.0
